Time;durP1;ratioP1;P1;durP2;ratioP2;P2;SDS_P1;SDS_P2;PMS_P1;PMS_P2;Temp;Humidity;BMP_temperature;BMP_pressure;BME280_temperature;BME280_humidity;BME280_pressure;Samples;Min_cycle;Max_cycle;Signal;HPM_P1;HPM_P2
2022/06/07 07:59:12;;;;;;;15.82;13.57;;;;;;;15.43;82.62;101164.25;5387028;27;20447;-75
2022/06/07 08:01:44;;;;;;;17.45;13.05;;;;;;;15.52;81.80;101167.13;5386652;27;20110;-75
2022/06/07 08:04:16;;;;;;;15.10;13.00;;;;;;;15.62;81.69;101169.66;5385878;27;20046;-76
2022/06/07 08:06:47;;;;;;;15.45;13.02;;;;;;;15.70;81.29;101163.38;5377923;27;20107;-81
2022/06/07 08:09:23;;;;;;;14.27;12.80;;;;;;;15.89;81.33;101163.19;5386400;27;20377;-81
2022/06/07 08:11:56;;;;;;;11.25;10.02;;;;;;;16.01;80.18;101157.03;5385903;27;20030;-81
2022/06/07 08:14:28;;;;;;;14.25;12.40;;;;;;;16.06;79.13;101160.50;5381970;27;20018;-83
2022/06/07 08:17:00;;;;;;;13.52;11.95;;;;;;;16.19;79.02;101172.78;5386222;27;20160;-83
2022/06/07 08:19:34;;;;;;;14.77;13.10;;;;;;;16.22;78.02;101158.13;5387199;27;20418;-84
2022/06/07 08:22:07;;;;;;;13.68;12.35;;;;;;;16.27;77.97;101159.97;5387060;27;20502;-82
2022/06/07 08:24:38;;;;;;;12.98;11.60;;;;;;;16.34;76.85;101160.34;5387218;27;20079;-81
2022/06/07 08:27:10;;;;;;;13.55;12.18;;;;;;;16.40;78.15;101159.06;5387326;27;20031;-84
2022/06/07 08:29:41;;;;;;;12.93;10.63;;;;;;;16.55;76.87;101162.59;5386024;27;20031;-79
2022/06/07 08:32:13;;;;;;;15.73;10.10;;;;;;;16.63;75.80;101157.00;5385275;27;20023;-83
2022/06/07 08:37:34;;;;;;;10.73;9.63;;;;;;;16.78;74.74;101152.16;5386541;27;20125;-85
2022/06/07 08:40:10;;;;;;;8.82;8.00;;;;;;;16.77;74.66;101151.31;5384868;27;20119;-82
2022/06/07 08:42:50;;;;;;;8.85;8.05;;;;;;;16.77;74.25;101156.91;5386290;27;20014;-83
2022/06/07 08:45:42;;;;;;;10.32;9.27;;;;;;;16.71;73.64;101156.22;5385216;27;20046;-83
2022/06/07 08:48:20;;;;;;;12.10;8.18;;;;;;;16.66;73.64;101155.53;5385817;27;20056;-83
2022/06/07 08:51:25;;;;;;;10.80;9.18;;;;;;;16.69;74.16;101152.09;5386285;27;20046;-84
2022/06/07 08:53:59;;;;;;;13.10;11.77;;;;;;;16.69;73.37;101152.09;5386656;27;20507;-90
2022/06/07 08:56:33;;;;;;;10.90;9.45;;;;;;;16.71;73.11;101152.59;5378432;27;20044;-91
2022/06/07 08:59:12;;;;;;;11.38;10.38;;;;;;;16.81;72.75;101152.34;5386722;27;20035;-90
2022/06/07 09:01:58;;;;;;;11.95;10.75;;;;;;;16.98;72.66;101150.75;5387082;27;20022;-90
2022/06/07 09:04:32;;;;;;;12.93;11.73;;;;;;;17.08;72.77;101142.88;5389125;27;20068;-87
2022/06/07 09:07:11;;;;;;;12.80;11.43;;;;;;;17.23;72.15;101149.13;5376260;27;20053;-88
2022/06/07 09:12:57;;;;;;;11.00;9.80;;;;;;;17.49;72.23;101143.56;5356834;27;20058;-89
2022/06/07 09:15:31;;;;;;;9.73;8.77;;;;;;;17.42;70.35;101148.84;5373222;27;20343;-89
2022/06/07 09:18:05;;;;;;;10.20;8.20;;;;;;;17.43;68.57;101144.88;5371762;27;20473;-76
2022/06/07 09:20:41;;;;;;;8.30;7.50;;;;;;;17.48;69.52;101141.91;5368781;27;20464;-77
2022/06/07 09:23:23;;;;;;;8.90;6.97;;;;;;;17.40;70.24;101143.56;5369962;27;20023;-74
2022/06/07 09:26:13;;;;;;;6.93;5.72;;;;;;;17.47;68.91;101148.69;5370318;27;20552;-76
2022/06/07 09:28:47;;;;;;;6.93;6.20;;;;;;;17.56;68.15;101146.69;5358238;27;20016;-74
2022/06/07 09:31:21;;;;;;;8.30;6.63;;;;;;;17.65;68.44;101141.09;5366041;27;20027;-76
2022/06/07 09:33:56;;;;;;;10.23;7.72;;;;;;;17.73;68.20;101149.50;5369628;27;20026;-74
2022/06/07 09:36:39;;;;;;;11.20;7.28;;;;;;;17.69;68.55;101136.44;5360408;27;20019;-74
2022/06/07 09:39:18;;;;;;;7.72;6.65;;;;;;;17.65;68.71;101136.31;5355043;27;20119;-74
2022/06/07 09:41:57;;;;;;;8.35;7.50;;;;;;;17.62;68.56;101139.78;5369820;27;20022;-74
2022/06/07 09:44:35;;;;;;;9.27;8.23;;;;;;;17.65;68.91;101136.31;5357482;27;20084;-72
2022/06/07 09:47:19;;;;;;;11.30;7.53;;;;;;;17.67;69.62;101136.81;5356568;27;20071;-76
2022/06/07 09:49:55;;;;;;;8.18;7.47;;;;;;;17.72;69.94;101142.25;5369812;27;20042;-74
2022/06/07 09:52:53;;;;;;;8.52;7.70;;;;;;;17.73;70.00;101143.88;5369598;27;20035;-74
2022/06/07 09:55:55;;;;;;;7.82;7.13;;;;;;;17.69;68.02;101134.50;5369681;27;20382;-75
2022/06/07 09:59:06;;;;;;;6.90;6.25;;;;;;;17.79;68.08;101137.00;5366580;27;20562;-74
2022/06/07 10:01:58;;;;;;;7.13;6.53;;;;;;;17.86;66.92;101136.47;5370252;27;20019;-74
2022/06/07 10:04:38;;;;;;;7.95;5.80;;;;;;;17.91;66.50;101132.69;5369056;27;20019;-76
2022/06/07 10:07:21;;;;;;;7.75;5.07;;;;;;;18.04;66.46;101131.66;5369928;27;20041;-75
2022/06/07 10:10:04;;;;;;;6.28;5.25;;;;;;;18.02;65.82;101134.81;5365553;27;20416;-77
2022/06/07 10:13:04;;;;;;;5.35;4.82;;;;;;;18.05;65.32;101133.31;5368805;27;20050;-72
2022/06/07 10:15:47;;;;;;;9.02;7.05;;;;;;;18.01;63.51;101132.34;5369351;27;20034;-72
2022/06/07 10:18:55;;;;;;;5.47;4.65;;;;;;;18.11;63.06;101128.34;5368138;27;20054;-73
2022/06/07 10:21:49;;;;;;;4.30;3.63;;;;;;;18.25;63.18;101118.56;5368605;27;20404;-72
2022/06/07 10:24:39;;;;;;;5.18;4.32;;;;;;;18.34;63.46;101121.34;5368976;27;20027;-72
2022/06/07 10:27:42;;;;;;;5.50;5.00;;;;;;;18.36;62.42;101121.03;5369447;27;20500;-71
2022/06/07 10:30:34;;;;;;;5.32;4.78;;;;;;;18.29;62.66;101115.09;5369404;27;20099;-71
2022/06/07 10:33:11;;;;;;;5.43;4.82;;;;;;;18.30;63.19;101113.91;5368992;27;20030;-70
2022/06/07 10:36:09;;;;;;;8.18;4.97;;;;;;;18.27;63.78;101111.78;5369218;27;20488;-71
2022/06/07 10:39:06;;;;;;;7.05;4.40;;;;;;;18.18;63.45;101115.47;5357089;27;20042;-71
2022/06/07 10:41:43;;;;;;;5.75;4.32;;;;;;;18.19;64.55;101116.28;5368951;27;20454;-71
2022/06/07 10:44:29;;;;;;;5.65;4.35;;;;;;;18.19;64.34;101119.09;5368861;27;20031;-72
2022/06/07 10:47:12;;;;;;;8.13;3.97;;;;;;;18.28;65.37;101116.22;5369014;27;20102;-71
2022/06/07 10:49:52;;;;;;;6.13;3.75;;;;;;;18.32;63.39;101108.81;5368347;27;20019;-71
2022/06/07 10:52:31;;;;;;;17.52;15.15;;;;;;;18.57;63.82;101113.47;5368487;27;20465;-71
2022/06/07 10:55:08;;;;;;;3.90;3.20;;;;;;;18.61;63.55;101108.00;5368247;27;20136;-70
2022/06/07 10:58:15;;;;;;;6.80;3.80;;;;;;;18.61;61.66;101106.03;5368244;27;20047;-71
2022/06/07 11:00:52;;;;;;;4.07;3.08;;;;;;;18.65;61.61;101107.00;5367984;27;20115;-70
2022/06/07 11:03:31;;;;;;;5.70;2.80;;;;;;;18.61;60.81;101105.19;5369059;27;20604;-71
2022/06/07 11:09:24;;;;;;;3.83;3.00;;;;;;;18.70;61.00;101103.19;5362472;27;20039;-71
2022/06/07 11:12:26;;;;;;;4.28;3.20;;;;;;;18.80;61.02;101097.19;5353363;27;20011;-71
2022/06/07 11:15:13;;;;;;;6.00;3.05;;;;;;;18.96;59.91;101105.88;5345293;27;20371;-70
2022/06/07 11:18:10;;;;;;;4.78;3.05;;;;;;;19.03;59.20;101108.16;5358085;27;20473;-71
2022/06/07 11:21:02;;;;;;;11.25;8.00;;;;;;;19.28;58.84;101106.31;5367221;27;20027;-71
2022/06/07 11:23:45;;;;;;;4.53;2.80;;;;;;;19.23;58.46;101114.97;5368288;27;20023;-71
2022/06/07 11:26:18;;;;;;;5.40;2.90;;;;;;;19.18;58.76;101115.97;5368457;27;20022;-73
2022/06/07 11:28:56;;;;;;;4.43;2.75;;;;;;;19.25;59.16;101112.59;5366658;27;20030;-72
2022/06/07 11:31:40;;;;;;;3.63;2.38;;;;;;;19.20;59.33;101115.63;5368208;27;20027;-72
2022/06/07 11:34:24;;;;;;;4.63;2.38;;;;;;;19.11;59.07;101107.25;5362793;27;20408;-73
2022/06/07 11:37:07;;;;;;;4.70;2.13;;;;;;;19.19;58.82;101113.97;5368553;27;20027;-72
2022/06/07 11:39:38;;;;;;;3.03;2.13;;;;;;;19.11;59.32;101107.25;5368832;27;20513;-71
2022/06/07 11:42:27;;;;;;;5.97;2.50;;;;;;;19.20;59.71;101112.81;5367180;27;20106;-71
2022/06/07 11:45:04;;;;;;;5.95;3.00;;;;;;;19.21;60.13;101106.84;5368292;27;20286;-73
2022/06/07 11:48:15;;;;;;;5.35;2.45;;;;;;;19.34;60.44;101102.13;5368147;27;20023;-73
2022/06/07 11:51:08;;;;;;;3.13;2.22;;;;;;;19.44;59.76;101103.69;5367225;27;20094;-73
2022/06/07 11:53:51;;;;;;;3.90;2.20;;;;;;;19.71;58.29;101099.50;5366158;27;20389;-73
2022/06/07 11:56:36;;;;;;;4.47;2.28;;;;;;;19.64;58.37;101104.84;5366335;27;20023;-71
2022/06/07 11:59:20;;;;;;;3.20;2.13;;;;;;;19.74;58.73;101099.66;5361960;27;20064;-73
2022/06/07 12:01:54;;;;;;;3.88;2.38;;;;;;;19.66;58.56;101094.06;5357094;27;20031;-73
2022/06/07 12:04:28;;;;;;;2.72;1.42;;;;;;;19.72;58.04;101103.97;5367626;27;20034;-73
2022/06/07 12:07:21;;;;;;;3.22;2.28;;;;;;;19.88;58.33;101096.53;5368192;27;20047;-73
2022/06/07 12:10:01;;;;;;;4.65;2.78;;;;;;;20.09;57.71;101095.63;5366052;27;20041;-73
2022/06/07 12:12:37;;;;;;;3.10;2.22;;;;;;;20.31;59.34;101095.22;5356868;27;20020;-73
2022/06/07 12:15:22;;;;;;;2.97;2.67;;;;;;;20.33;58.58;101095.69;5346682;28;20028;-73
2022/06/07 12:17:58;;;;;;;2.47;1.90;;;;;;;20.30;58.24;101106.81;5345872;28;20083;-72
2022/06/07 12:20:31;;;;;;;2.47;2.28;;;;;;;20.03;58.04;101094.22;5357731;27;20037;-73
2022/06/07 12:23:21;;;;;;;4.05;2.30;;;;;;;20.07;58.71;101087.56;5367995;27;20117;-73
2022/06/07 12:25:58;;;;;;;4.25;1.80;;;;;;;20.01;59.37;101085.31;5367827;27;20067;-73
2022/06/07 12:28:34;;;;;;;4.60;2.30;;;;;;;19.90;59.91;101087.75;5367988;27;20019;-71
2022/06/07 12:31:21;;;;;;;;;;;;;;;20.06;59.44;101083.09;5367454;27;20019;-71
2022/06/07 12:33:56;;;;;;;3.45;2.85;;;;;;;20.06;59.05;101079.44;5367639;27;19915;-73
2022/06/07 12:36:36;;;;;;;2.17;1.98;;;;;;;20.25;59.34;101079.72;5367372;27;20072;-72
2022/06/07 12:39:18;;;;;;;4.15;2.63;;;;;;;20.04;59.95;101078.97;5366992;27;20083;-73
2022/06/07 12:42:12;;;;;;;3.28;2.58;;;;;;;20.02;60.02;101084.13;5367699;27;20479;-72
2022/06/07 12:45:17;;;;;;;4.00;3.15;;;;;;;19.91;60.18;101078.13;5369110;27;20027;-72
2022/06/07 12:47:58;;;;;;;4.22;2.90;;;;;;;19.76;61.14;101072.00;5371529;27;20119;-72
2022/06/07 12:50:38;;;;;;;4.82;2.83;;;;;;;19.88;61.76;101076.00;5371923;27;20466;-73
2022/06/07 12:53:20;;;;;;;3.88;3.05;;;;;;;19.89;61.89;101074.81;5371485;27;20385;-71
2022/06/07 12:56:11;;;;;;;4.68;2.85;;;;;;;19.90;62.59;101088.56;5370921;27;20369;-71
2022/06/07 12:58:47;;;;;;;4.03;3.63;;;;;;;19.67;61.61;101090.13;5359731;27;20055;-71
2022/06/07 13:01:38;;;;;;;4.80;4.18;;;;;;;19.69;61.80;101084.97;5370891;27;20377;-70
2022/06/07 13:04:33;;;;;;;4.18;3.75;;;;;;;19.68;63.16;101091.75;5371779;27;20141;-71
2022/06/07 13:07:17;;;;;;;12.43;11.27;;;;;;;19.60;63.66;101084.19;5369461;27;20019;-71
2022/06/07 13:09:53;;;;;;;5.97;4.55;;;;;;;19.39;63.96;101090.66;5349697;27;20038;-71
2022/06/07 13:12:30;;;;;;;6.00;5.40;;;;;;;19.39;64.62;101085.03;5367438;27;20491;-71
2022/06/07 13:15:12;;;;;;;4.63;4.20;;;;;;;19.35;65.00;101081.25;5371407;27;20033;-72
2022/06/07 13:17:57;;;;;;;8.60;5.65;;;;;;;19.27;65.35;101079.34;5371204;27;20079;-72
2022/06/07 13:20:38;;;;;;;9.32;5.50;;;;;;;19.18;65.34;101079.44;5370460;27;20023;-73
2022/06/07 13:23:18;;;;;;;4.45;3.97;;;;;;;19.16;65.34;101072.50;5370791;27;20110;-73
2022/06/07 13:25:50;;;;;;;5.05;4.22;;;;;;;19.09;64.83;101073.84;5370457;27;20021;-73
2022/06/07 13:28:23;;;;;;;6.65;4.22;;;;;;;18.99;65.60;101070.63;5369911;27;20029;-73
2022/06/07 13:30:55;;;;;;;4.95;3.80;;;;;;;19.09;64.77;101073.03;5370714;27;20019;-72
2022/06/07 13:33:30;;;;;;;5.00;3.55;;;;;;;19.11;64.92;101068.72;5369892;27;20027;-71
2022/06/07 13:36:26;;;;;;;;;;;;;;;19.20;65.33;101065.00;5370416;27;20031;-71
2022/06/07 13:38:58;;;;;;;5.75;5.03;;;;;;;19.09;65.19;101064.59;5370589;27;19910;-71
2022/06/07 13:41:30;;;;;;;4.00;3.60;;;;;;;19.25;65.42;101062.84;5368791;27;20518;-71
2022/06/07 13:44:27;;;;;;;15.38;13.98;;;;;;;19.29;64.94;101069.41;5349263;27;20094;-71
2022/06/07 13:47:01;;;;;;;5.88;5.15;;;;;;;19.25;64.26;101060.03;5348266;27;20094;-71
2022/06/07 13:55:24;;;;;;;9.98;8.98;;;;;;;19.33;64.99;101059.13;5369260;27;20106;-71
2022/06/07 13:57:56;;;;;;;6.20;5.57;;;;;;;19.24;65.10;101049.13;5369082;27;20054;-72
2022/06/07 14:00:28;;;;;;;4.38;3.97;;;;;;;19.33;66.37;101052.69;5370099;27;20027;-72
2022/06/07 14:03:01;;;;;;;5.72;4.65;;;;;;;19.30;65.82;101059.81;5369188;27;20148;-73
2022/06/07 14:05:34;;;;;;;4.78;4.07;;;;;;;19.25;65.90;101051.59;5369819;27;20030;-72
2022/06/07 14:08:13;;;;;;;6.07;4.43;;;;;;;19.21;66.74;101052.63;5369482;27;20105;-73
2022/06/07 14:10:45;;;;;;;6.43;5.15;;;;;;;19.19;66.03;101052.94;5364243;27;20106;-71
2022/06/07 14:13:18;;;;;;;7.80;5.90;;;;;;;19.07;66.80;101053.72;5347899;27;20027;-71
2022/06/07 14:15:51;;;;;;;6.32;5.70;;;;;;;19.10;67.00;101055.84;5364576;27;20122;-72
2022/06/07 14:18:23;;;;;;;7.05;5.32;;;;;;;19.17;66.93;101055.28;5368028;27;20038;-72
2022/06/07 14:20:55;;;;;;;6.75;5.20;;;;;;;19.05;66.97;101058.84;5369780;27;20027;-73
2022/06/07 14:23:27;;;;;;;5.30;4.80;;;;;;;19.08;67.80;101051.72;5368325;27;20019;-73
2022/06/07 14:25:58;;;;;;;12.85;6.28;;;;;;;19.08;67.81;101055.34;5369433;27;20030;-73
2022/06/07 14:28:30;;;;;;;6.50;5.40;;;;;;;19.13;68.48;101053.50;5368928;27;20103;-73
2022/06/07 14:31:01;;;;;;;5.75;5.15;;;;;;;19.16;68.20;101059.25;5368508;27;20027;-73
2022/06/07 14:33:33;;;;;;;8.30;6.32;;;;;;;19.12;67.96;101041.44;5357547;27;20027;-74
2022/06/07 14:36:05;;;;;;;9.23;5.85;;;;;;;19.09;67.61;101042.94;5355071;27;20018;-74
2022/06/07 14:38:36;;;;;;;6.55;5.43;;;;;;;19.07;68.05;101045.28;5368272;27;20057;-72
2022/06/07 14:41:08;;;;;;;7.22;6.57;;;;;;;19.13;68.02;101040.28;5367781;27;20039;-73
2022/06/07 14:43:39;;;;;;;6.60;6.00;;;;;;;19.18;67.72;101036.44;5367990;27;20474;-72
2022/06/07 14:46:13;;;;;;;6.32;5.72;;;;;;;19.22;67.59;101045.81;5366094;27;20027;-72
2022/06/07 14:48:53;;;;;;;6.63;5.97;;;;;;;19.23;68.06;101047.47;5363381;27;20156;-73
2022/06/07 14:51:32;;;;;;;6.43;5.75;;;;;;;19.28;67.67;101036.84;5368100;27;20101;-75
2022/06/07 14:54:05;;;;;;;32.90;29.45;;;;;;;19.49;68.02;101028.38;5368288;27;20035;-76
2022/06/07 14:56:37;;;;;;;6.50;5.60;;;;;;;19.63;67.14;101025.25;5368720;27;20101;-75
2022/06/07 14:59:09;;;;;;;8.40;6.10;;;;;;;19.63;66.88;101028.06;5361268;27;20553;-72
2022/06/07 15:01:48;;;;;;;7.18;5.95;;;;;;;19.65;67.21;101024.91;5368779;27;20030;-73
2022/06/07 15:04:35;;;;;;;8.70;7.07;;;;;;;19.74;67.62;101026.50;5368877;27;20438;-71
2022/06/07 15:07:23;;;;;;;7.18;6.47;;;;;;;19.74;67.36;101028.50;5366841;27;20033;-73
2022/06/07 15:09:55;;;;;;;6.93;6.22;;;;;;;19.78;65.98;101018.16;5362179;27;20377;-72
2022/06/07 15:12:29;;;;;;;9.32;6.45;;;;;;;19.85;65.29;101035.31;5367383;27;20030;-72
2022/06/07 15:15:00;;;;;;;7.20;5.97;;;;;;;20.00;64.92;101019.75;5366869;27;20106;-70
2022/06/07 15:17:55;;;;;;;11.13;9.95;;;;;;;20.07;65.00;101020.00;5364590;27;20110;-71
2022/06/07 15:20:33;;;;;;;6.78;6.18;;;;;;;20.11;64.22;101022.91;5359876;27;20023;-69
2022/06/07 15:23:18;;;;;;;73.70;65.70;;;;;;;20.08;64.18;101016.00;5346656;27;20027;-71
2022/06/07 15:25:54;;;;;;;8.50;7.30;;;;;;;19.94;63.59;101021.97;5346710;27;20419;-70
2022/06/07 15:28:26;;;;;;;6.47;5.97;;;;;;;19.94;63.52;101016.34;5365755;27;20019;-70
2022/06/07 15:30:57;;;;;;;8.32;7.53;;;;;;;19.88;63.44;101012.09;5367686;27;20152;-72
2022/06/07 15:33:28;;;;;;;7.95;6.28;;;;;;;19.92;63.45;101015.88;5366277;27;20030;-71
2022/06/07 15:36:00;;;;;;;6.75;6.15;;;;;;;19.96;63.54;101013.97;5368249;27;20053;-71
2022/06/07 15:38:33;;;;;;;7.88;7.18;;;;;;;19.94;62.39;101021.13;5368123;27;20105;-71
2022/06/07 15:42:46;;;;;;;8.02;7.30;;;;;;;19.92;63.22;101015.88;5367409;27;20015;-71
2022/06/07 15:43:55;;;;;;;9.05;7.82;;;;;;;19.85;62.27;101015.59;5367441;27;20030;-71
2022/06/07 15:46:27;;;;;;;9.60;8.73;;;;;;;19.76;62.92;101015.72;5367655;27;20029;-71
2022/06/07 15:49:00;;;;;;;8.55;7.85;;;;;;;19.78;62.85;101018.16;5354607;27;20045;-71
2022/06/07 15:51:33;;;;;;;8.30;7.50;;;;;;;19.67;62.88;101020.59;5367888;27;20026;-71
2022/06/07 15:54:04;;;;;;;8.57;7.88;;;;;;;19.71;62.17;101017.91;5367116;27;20019;-71
2022/06/07 15:56:36;;;;;;;10.50;7.95;;;;;;;19.69;62.53;101006.22;5368000;27;20522;-71
2022/06/07 15:59:07;;;;;;;10.85;9.23;;;;;;;19.68;62.18;101019.44;5367555;27;20096;-71
2022/06/07 16:01:39;;;;;;;6.75;6.15;;;;;;;19.69;61.68;101020.28;5366589;27;20131;-72
2022/06/07 16:04:10;;;;;;;7.45;6.65;;;;;;;19.73;59.88;101007.13;5362177;27;20022;-71
2022/06/07 16:06:43;;;;;;;6.28;5.68;;;;;;;19.70;60.49;101016.28;5367600;27;20342;-72
2022/06/07 16:09:14;;;;;;;6.43;5.85;;;;;;;19.76;60.98;101009.25;5366636;27;20025;-71
2022/06/07 16:11:46;;;;;;;7.28;6.60;;;;;;;19.76;61.00;101014.88;5368129;27;20469;-71
2022/06/07 16:14:17;;;;;;;7.35;6.65;;;;;;;19.74;60.80;101017.25;5367277;27;20054;-72
2022/06/07 16:16:52;;;;;;;7.78;6.82;;;;;;;19.79;61.19;101011.38;5366817;27;20030;-72
2022/06/07 16:19:23;;;;;;;7.72;7.03;;;;;;;19.74;61.00;101014.44;5367652;27;20027;-71
2022/06/07 16:21:54;;;;;;;9.07;7.80;;;;;;;19.68;61.37;101012.97;5372384;27;20029;-72
2022/06/07 16:24:29;;;;;;;8.52;7.60;;;;;;;19.68;62.17;101018.63;5371205;27;20019;-71
2022/06/07 16:27:00;;;;;;;9.40;8.70;;;;;;;19.61;62.06;101012.69;5371693;27;20022;-71
2022/06/07 16:35:11;;;;;;;9.00;8.10;;;;;;;19.51;61.70;101019.59;5371667;27;20035;-72
2022/06/07 16:37:42;;;;;;;8.27;7.50;;;;;;;19.45;61.47;101016.16;5370817;27;20533;-71
2022/06/07 16:40:13;;;;;;;8.48;7.78;;;;;;;19.46;61.41;101015.00;5370458;27;20027;-71
2022/06/07 16:42:45;;;;;;;8.80;8.10;;;;;;;19.38;62.17;101021.53;5368677;27;20118;-71
2022/06/07 16:45:16;;;;;;;8.88;8.10;;;;;;;19.43;62.32;101012.03;5349228;27;20110;-71
2022/06/07 16:47:47;;;;;;;10.07;8.88;;;;;;;19.47;62.56;101013.00;5350147;27;20056;-71
2022/06/07 16:50:21;;;;;;;9.30;8.45;;;;;;;19.42;62.47;101013.22;5348935;27;20042;-73
2022/06/07 16:52:53;;;;;;;42.33;37.55;;;;;;;19.43;62.93;101023.28;5364377;27;20022;-69
2022/06/07 16:55:24;;;;;;;11.98;11.07;;;;;;;19.39;63.41;101020.38;5370748;27;20411;-69
2022/06/07 16:57:55;;;;;;;41.92;37.38;;;;;;;19.34;63.49;101023.38;5369391;27;20070;-72
2022/06/07 17:00:27;;;;;;;23.83;21.83;;;;;;;19.41;64.41;101025.66;5360747;27;20034;-72
2022/06/07 17:02:58;;;;;;;9.73;8.82;;;;;;;19.42;64.50;101025.28;5361292;27;20023;-70
2022/06/07 17:05:29;;;;;;;10.45;9.57;;;;;;;19.37;63.31;101025.50;5352874;27;20347;-67
2022/06/07 17:08:01;;;;;;;9.63;8.70;;;;;;;19.27;63.26;101034.38;5368548;27;20018;-68
2022/06/07 17:10:33;;;;;;;10.18;9.10;;;;;;;19.16;64.27;101024.72;5369498;27;20027;-70
2022/06/07 17:13:06;;;;;;;8.70;8.00;;;;;;;19.24;64.19;101030.25;5370444;27;20422;-72
2022/06/07 17:15:39;;;;;;;9.88;9.00;;;;;;;19.19;64.59;101029.63;5370419;27;20061;-72
2022/06/07 17:18:10;;;;;;;10.82;9.85;;;;;;;19.20;64.95;101026.50;5369790;27;20033;-71
2022/06/07 17:20:43;;;;;;;16.73;15.20;;;;;;;19.18;65.55;101033.63;5369199;27;20023;-70
2022/06/07 17:23:15;;;;;;;12.88;11.65;;;;;;;18.98;69.49;101033.28;5369040;27;20047;-72
2022/06/07 17:25:47;;;;;;;12.80;11.70;;;;;;;18.95;70.23;101030.34;5353095;27;20023;-72
2022/06/07 17:28:18;;;;;;;11.82;10.90;;;;;;;18.84;71.36;101036.38;5354344;27;20051;-72
